createdAt,value
2022-11-15T00:01:39.580Z,14.60
2022-11-15T00:04:26.348Z,15.80
2022-11-15T00:07:33.276Z,14.50
2022-11-15T00:10:19.492Z,16.50
2022-11-15T00:13:12.380Z,13.70
2022-11-15T00:16:00.912Z,12.20
2022-11-15T00:18:50.651Z,11.10
2022-11-15T00:21:37.699Z,11.00
2022-11-15T00:24:24.251Z,10.20
2022-11-15T00:27:10.882Z,13.70
2022-11-15T00:29:57.518Z,12.10
2022-11-15T00:32:44.158Z,11.40
2022-11-15T00:35:33.953Z,10.40
2022-11-15T00:38:20.604Z,10.20
2022-11-15T00:41:09.887Z,10.60
2022-11-15T00:43:56.665Z,10.90
2022-11-15T00:46:43.195Z,11.10
2022-11-15T00:49:29.987Z,10.70
2022-11-15T00:52:16.582Z,10.10
2022-11-15T00:55:03.337Z,10.30
2022-11-15T00:57:49.946Z,10.80
2022-11-15T01:00:36.836Z,9.60
2022-11-15T01:03:23.501Z,9.90
2022-11-15T01:06:11.151Z,9.80
2022-11-15T01:08:57.980Z,9.80
2022-11-15T01:12:02.544Z,9.50
2022-11-15T01:14:48.966Z,10.30
2022-11-15T01:17:35.780Z,11.80
2022-11-15T01:20:22.431Z,9.40
2022-11-15T01:23:09.467Z,11.10
2022-11-15T01:26:01.374Z,9.60
2022-11-15T01:28:48.118Z,11.40
2022-11-15T01:31:34.675Z,10.70
2022-11-15T01:34:21.313Z,12.50
2022-11-15T01:37:07.944Z,12.70
2022-11-15T01:39:54.626Z,10.00
2022-11-15T01:42:41.404Z,13.00
2022-11-15T01:45:28.040Z,15.80
2022-11-15T01:48:14.956Z,16.10
2022-11-15T01:51:07.852Z,15.40
2022-11-15T01:54:00.118Z,13.00
2022-11-15T01:56:53.325Z,16.00
2022-11-15T01:59:43.175Z,13.90
2022-11-15T02:02:30.016Z,12.90
2022-11-15T02:05:16.655Z,14.60
2022-11-15T02:08:03.099Z,15.80
2022-11-15T02:10:49.842Z,14.20
2022-11-15T02:13:37.854Z,14.10
2022-11-15T02:16:40.879Z,15.20
2022-11-15T02:19:33.467Z,15.90
2022-11-15T02:22:32.232Z,14.40
2022-11-15T02:25:56.542Z,15.20
2022-11-15T02:28:45.856Z,14.50
2022-11-15T02:32:04.362Z,15.40
2022-11-15T02:35:25.293Z,14.40
2022-11-15T02:38:21.010Z,16.60
2022-11-15T02:41:12.535Z,16.90
2022-11-15T02:44:09.168Z,12.90
2022-11-15T02:47:15.055Z,17.30
2022-11-15T02:50:09.305Z,12.70
2022-11-15T02:52:56.773Z,16.50
2022-11-15T02:55:48.461Z,13.20
2022-11-15T02:58:50.140Z,15.20
2022-11-15T03:02:28.108Z,14.40
2022-11-15T03:05:39.883Z,16.40
2022-11-15T03:08:48.947Z,12.70
2022-11-15T03:11:42.498Z,11.40
2022-11-15T03:14:36.056Z,11.30
2022-11-15T03:17:34.039Z,12.70
2022-11-15T03:20:21.047Z,10.40
2022-11-15T03:23:11.285Z,11.30
2022-11-15T03:26:00.536Z,12.00
2022-11-15T03:28:53.455Z,11.40
2022-11-15T03:31:50.337Z,10.60
2022-11-15T03:34:52.837Z,10.90
2022-11-15T03:38:04.462Z,10.00
2022-11-15T03:41:05.136Z,11.30
2022-11-15T03:44:01.095Z,9.20
2022-11-15T03:47:05.527Z,9.90
2022-11-15T03:50:02.251Z,9.80
2022-11-15T03:52:50.535Z,8.70
2022-11-15T03:55:36.817Z,10.70
2022-11-15T03:58:23.650Z,9.80
2022-11-15T04:01:10.688Z,10.10
2022-11-15T04:03:57.373Z,11.00
2022-11-15T04:06:44.042Z,10.00
2022-11-15T04:09:30.645Z,9.80
2022-11-15T04:12:31.754Z,8.60
2022-11-15T04:15:20.914Z,8.70
2022-11-15T04:18:07.336Z,8.80
2022-11-15T04:21:12.701Z,9.50
2022-11-15T04:24:14.146Z,8.00
2022-11-15T04:27:01.468Z,8.40
2022-11-15T04:29:47.908Z,10.10
2022-11-15T04:32:34.591Z,8.20
2022-11-15T04:35:21.120Z,8.50
2022-11-15T04:38:10.014Z,9.00
2022-11-15T04:40:56.363Z,8.50
2022-11-15T04:43:42.830Z,9.30
2022-11-15T04:46:30.851Z,10.00
2022-11-15T04:49:17.521Z,9.80
2022-11-15T04:52:04.338Z,9.20
2022-11-15T04:54:51.054Z,12.80
2022-11-15T04:57:38.639Z,12.60
2022-11-15T05:00:25.045Z,14.20
2022-11-15T05:03:30.770Z,17.90
2022-11-15T05:06:17.695Z,11.90
2022-11-15T05:09:04.591Z,17.20
2022-11-15T05:11:51.167Z,15.10
2022-11-15T05:14:37.454Z,14.00
2022-11-15T05:17:23.939Z,13.00
2022-11-15T05:20:11.326Z,17.30
2022-11-15T05:22:57.909Z,15.20
2022-11-15T05:25:44.548Z,15.00
2022-11-15T05:28:32.053Z,16.00
2022-11-15T05:31:18.480Z,15.30
2022-11-15T05:34:06.285Z,13.60
2022-11-15T05:36:52.928Z,14.10
2022-11-15T05:39:39.619Z,11.80
2022-11-15T05:42:28.672Z,13.00
2022-11-15T05:45:15.694Z,11.40
2022-11-15T05:50:51.499Z,11.50
2022-11-15T05:53:38.420Z,10.40
2022-11-15T05:56:26.262Z,13.20
2022-11-15T05:59:13.018Z,14.10
2022-11-15T06:02:00.207Z,15.40
2022-11-15T06:04:46.755Z,15.40
2022-11-15T06:07:33.416Z,14.10
2022-11-15T06:10:20.019Z,13.20
2022-11-15T06:13:06.606Z,14.70
2022-11-15T06:15:57.462Z,14.60
2022-11-15T06:18:44.086Z,16.20
2022-11-15T06:21:30.988Z,15.30
2022-11-15T06:24:17.632Z,16.20
2022-11-15T06:27:04.529Z,18.50
2022-11-15T06:29:50.890Z,17.50
2022-11-15T06:32:37.658Z,15.30
2022-11-15T06:35:24.323Z,17.00
2022-11-15T06:38:12.136Z,13.80
2022-11-15T06:41:03.856Z,14.10
2022-11-15T06:43:50.417Z,14.20
2022-11-15T06:46:37.194Z,12.50
2022-11-15T06:49:23.948Z,14.90
2022-11-15T06:52:10.573Z,14.20
2022-11-15T06:54:57.255Z,14.20
2022-11-15T06:57:53.473Z,12.60
2022-11-15T07:00:42.428Z,12.90
2022-11-15T07:03:29.850Z,12.80
2022-11-15T07:06:17.075Z,13.30
2022-11-15T07:09:04.412Z,13.70
2022-11-15T07:11:50.841Z,11.00
2022-11-15T07:14:37.676Z,14.40
2022-11-15T07:17:24.031Z,14.10
2022-11-15T07:20:11.933Z,12.10
2022-11-15T07:23:03.081Z,12.50
2022-11-15T07:25:50.356Z,11.20
2022-11-15T07:28:37.437Z,10.70
2022-11-15T07:31:24.590Z,11.40
2022-11-15T07:34:11.318Z,11.10
2022-11-15T07:36:57.858Z,9.00
2022-11-15T07:39:45.123Z,13.70
2022-11-15T07:42:53.237Z,14.40
2022-11-15T07:48:42.858Z,13.20
2022-11-15T07:51:30.906Z,11.60
2022-11-15T07:54:17.705Z,14.90
2022-11-15T07:57:07.513Z,13.30
2022-11-15T07:59:54.852Z,12.00
2022-11-15T08:02:41.382Z,12.40
2022-11-15T08:05:28.386Z,11.90
2022-11-15T08:08:15.245Z,12.20
2022-11-15T08:11:01.997Z,13.70
2022-11-15T08:13:48.410Z,14.20
2022-11-15T08:16:35.271Z,14.30
2022-11-15T08:19:21.744Z,18.40
2022-11-15T08:22:09.010Z,17.30
2022-11-15T08:24:55.399Z,16.70
2022-11-15T08:27:41.695Z,15.80
2022-11-15T08:30:29.246Z,15.60
2022-11-15T08:33:15.897Z,13.90
2022-11-15T08:36:03.199Z,15.60
2022-11-15T08:38:49.693Z,15.00
2022-11-15T08:41:39.026Z,15.50
2022-11-15T08:44:25.487Z,14.80
2022-11-15T08:47:13.133Z,17.60
2022-11-15T08:49:59.631Z,14.40
2022-11-15T08:52:46.098Z,13.10
2022-11-15T08:55:32.855Z,17.40
2022-11-15T08:58:19.286Z,15.90
2022-11-15T09:01:06.451Z,16.20
2022-11-15T09:06:43.188Z,14.30
2022-11-15T09:09:29.962Z,15.00
2022-11-15T09:12:16.378Z,14.10
2022-11-15T09:15:03.959Z,14.20
2022-11-15T09:17:50.329Z,16.00
2022-11-15T09:20:36.825Z,14.60
2022-11-15T09:23:23.869Z,14.30
2022-11-15T09:26:10.278Z,13.30
2022-11-15T09:28:56.951Z,14.10
2022-11-15T09:31:43.873Z,14.20
2022-11-15T09:34:30.268Z,14.60
2022-11-15T09:37:17.012Z,13.10
2022-11-15T09:40:04.321Z,15.80
2022-11-15T09:43:12.918Z,15.60
2022-11-15T09:46:05.097Z,13.70
2022-11-15T09:48:58.779Z,14.50
2022-11-15T09:51:54.387Z,14.10
2022-11-15T09:57:35.972Z,15.50
2022-11-15T10:00:45.442Z,15.00
2022-11-15T10:03:18.394Z,13.50
2022-11-15T10:05:52.914Z,13.80
2022-11-15T10:08:40.032Z,14.50
2022-11-15T10:14:14.525Z,14.60
2022-11-15T10:16:53.539Z,14.40
2022-11-15T10:19:33.381Z,16.10
2022-11-15T10:22:04.356Z,17.50
2022-11-15T10:24:38.311Z,20.30
2022-11-15T10:27:12.934Z,16.50
2022-11-15T10:29:49.096Z,15.40
2022-11-15T10:32:20.254Z,14.60
2022-11-15T10:34:50.734Z,15.10
2022-11-15T10:37:33.120Z,17.60
2022-11-15T10:40:17.883Z,16.00
2022-11-15T10:42:46.528Z,16.20
2022-11-15T10:45:30.793Z,19.40
2022-11-15T10:48:14.127Z,16.80
2022-11-15T10:50:44.949Z,20.00
2022-11-15T10:53:19.087Z,17.60
2022-11-15T10:55:49.554Z,20.60
2022-11-15T10:58:36.096Z,19.50
2022-11-15T11:01:17.132Z,18.30
2022-11-15T11:04:00.225Z,19.70
2022-11-15T11:06:28.791Z,17.80
2022-11-15T11:09:02.777Z,16.90
2022-11-15T11:11:47.197Z,17.60
2022-11-15T11:14:32.048Z,15.90
2022-11-15T11:17:06.276Z,16.80
2022-11-15T11:19:46.139Z,15.50
2022-11-15T11:22:37.002Z,15.50
2022-11-15T11:25:32.638Z,14.10
2022-11-15T11:28:15.971Z,14.10
2022-11-15T11:31:08.986Z,15.00
2022-11-15T11:34:03.954Z,14.40
2022-11-15T11:36:50.459Z,14.20
2022-11-15T11:39:46.138Z,14.20
2022-11-15T11:42:36.123Z,12.60
2022-11-15T11:45:25.570Z,14.90
2022-11-15T11:48:08.675Z,14.60
2022-11-15T11:50:39.111Z,11.50
2022-11-15T11:53:12.344Z,12.20
2022-11-15T11:55:45.794Z,12.90
2022-11-15T11:58:27.740Z,12.20
2022-11-15T12:01:01.332Z,12.30
2022-11-15T12:03:39.403Z,13.80
2022-11-15T12:06:45.138Z,11.50
2022-11-15T12:09:31.361Z,11.70
2022-11-15T12:12:23.323Z,11.90
2022-11-15T12:15:09.683Z,10.90
2022-11-15T12:17:41.124Z,12.80
2022-11-15T12:20:25.102Z,11.50
2022-11-15T12:23:04.910Z,11.80
2022-11-15T12:25:44.034Z,12.70
2022-11-15T12:28:38.385Z,13.00
2022-11-15T12:31:22.133Z,11.30
2022-11-15T12:33:50.940Z,11.30
2022-11-15T12:36:22.057Z,14.80
2022-11-15T12:38:52.745Z,17.90
2022-11-15T12:41:22.274Z,15.20
2022-11-15T12:43:51.169Z,15.60
2022-11-15T12:46:49.479Z,12.70
2022-11-15T12:49:26.506Z,15.10
2022-11-15T12:52:00.719Z,17.90
2022-11-15T12:54:30.459Z,16.10
2022-11-15T12:57:04.149Z,17.40
2022-11-15T13:00:00.549Z,19.40
2022-11-15T13:02:44.620Z,17.40
2022-11-15T13:05:16.101Z,15.80
2022-11-15T13:07:44.184Z,19.80
2022-11-15T13:10:15.019Z,16.40
2022-11-15T13:12:45.681Z,14.00
2022-11-15T13:15:13.983Z,15.30
2022-11-15T13:17:56.194Z,19.90
2022-11-15T13:20:28.418Z,21.70
2022-11-15T13:23:05.691Z,19.80
2022-11-15T13:25:36.767Z,21.40
2022-11-15T13:28:16.713Z,20.30
2022-11-15T13:30:47.761Z,23.50
2022-11-15T13:33:19.229Z,28.20
2022-11-15T13:35:53.931Z,23.70
2022-11-15T13:38:35.041Z,20.60
2022-11-15T13:41:34.071Z,21.80
2022-11-15T13:44:03.506Z,19.70
2022-11-15T13:46:36.214Z,20.90
2022-11-15T13:49:14.022Z,17.90
2022-11-15T13:51:52.051Z,18.70
2022-11-15T13:54:38.683Z,18.00
2022-11-15T13:57:14.195Z,16.40
2022-11-15T14:00:31.092Z,15.90
2022-11-15T14:03:08.347Z,12.80
2022-11-15T14:05:36.628Z,12.00
2022-11-15T14:08:14.143Z,13.20
2022-11-15T14:10:42.336Z,13.80
2022-11-15T14:13:29.544Z,16.00
2022-11-15T14:16:37.825Z,14.20
2022-11-15T14:19:07.511Z,12.70
2022-11-15T14:21:35.488Z,14.80
2022-11-15T14:24:22.297Z,13.50
2022-11-15T14:26:50.273Z,15.50
2022-11-15T14:29:29.495Z,13.40
2022-11-15T14:32:15.564Z,12.70
2022-11-15T14:34:44.580Z,13.50
2022-11-15T14:37:24.678Z,13.50
2022-11-15T14:39:53.746Z,12.60
2022-11-15T14:42:23.708Z,13.80
2022-11-15T14:44:52.461Z,15.40
2022-11-15T14:47:20.587Z,14.40
2022-11-15T14:49:48.649Z,12.80
2022-11-15T14:52:32.168Z,14.70
2022-11-15T14:55:03.489Z,12.80
2022-11-15T14:57:32.015Z,16.30
2022-11-15T14:59:59.956Z,12.90
2022-11-15T15:02:42.586Z,12.80
2022-11-15T15:05:22.876Z,13.10
2022-11-15T15:07:54.118Z,13.20
2022-11-15T15:10:40.534Z,13.80
2022-11-15T15:13:27.120Z,15.50
2022-11-15T15:15:55.267Z,16.60
2022-11-15T15:18:23.146Z,18.40
2022-11-15T15:21:01.165Z,16.30
2022-11-15T15:23:32.052Z,16.00
2022-11-15T15:26:00.353Z,15.00
2022-11-15T15:28:33.071Z,14.70
2022-11-15T15:31:03.395Z,14.30
2022-11-15T15:33:31.736Z,14.40
2022-11-15T15:36:00.373Z,16.80
2022-11-15T15:38:28.511Z,15.50
2022-11-15T15:40:56.675Z,16.10
2022-11-15T15:43:24.717Z,15.10
2022-11-15T15:45:52.684Z,15.40
2022-11-15T15:48:20.626Z,16.30
2022-11-15T15:50:50.183Z,14.90
2022-11-15T15:53:18.403Z,14.30
2022-11-15T15:55:46.482Z,13.90
2022-11-15T15:58:14.376Z,14.50
2022-11-15T16:00:42.376Z,19.40
2022-11-15T16:03:10.470Z,35.50
2022-11-15T16:05:38.517Z,28.20
2022-11-15T16:08:06.554Z,21.00
2022-11-15T16:10:35.549Z,20.40
2022-11-15T16:13:04.099Z,18.90
2022-11-15T16:15:32.768Z,16.50
2022-11-15T16:18:02.299Z,16.20
2022-11-15T16:20:43.605Z,15.70
2022-11-15T16:23:18.083Z,15.70
2022-11-15T16:25:50.669Z,18.00
2022-11-15T16:28:21.828Z,15.30
2022-11-15T16:30:59.707Z,14.30
2022-11-15T16:33:27.745Z,13.50
2022-11-15T16:35:55.767Z,13.10
2022-11-15T16:38:23.963Z,11.80
2022-11-15T16:40:51.848Z,13.90
2022-11-15T16:43:19.998Z,13.40
2022-11-15T16:45:49.054Z,12.20
2022-11-15T16:48:26.356Z,12.50
2022-11-15T16:50:59.336Z,12.20
2022-11-15T16:53:28.223Z,12.20
2022-11-15T16:55:56.488Z,12.50
2022-11-15T16:58:25.174Z,17.50
2022-11-15T17:00:55.161Z,14.80
2022-11-15T17:03:24.477Z,15.80
2022-11-15T17:05:53.053Z,13.70
2022-11-15T17:08:22.166Z,14.50
2022-11-15T17:10:51.041Z,14.40
2022-11-15T17:13:19.076Z,12.90
2022-11-15T17:15:47.191Z,13.70
2022-11-15T17:18:15.814Z,13.20
2022-11-15T17:20:44.491Z,19.90
2022-11-15T17:23:14.774Z,15.50
2022-11-15T17:25:43.308Z,13.00
2022-11-15T17:28:11.444Z,18.60
2022-11-15T17:30:43.443Z,15.40
2022-11-15T17:33:11.534Z,17.10
2022-11-15T17:35:39.464Z,16.80
2022-11-15T17:38:07.328Z,17.10
2022-11-15T17:40:35.347Z,15.60
2022-11-15T17:43:05.885Z,23.70
2022-11-15T17:45:34.229Z,16.50
2022-11-15T17:48:02.171Z,17.30
2022-11-15T17:50:30.078Z,17.90
2022-11-15T17:53:00.373Z,19.90
2022-11-15T17:55:28.285Z,18.40
2022-11-15T17:57:56.199Z,21.00
2022-11-15T18:00:24.165Z,19.90
2022-11-15T18:02:52.121Z,21.10
2022-11-15T18:05:20.053Z,24.30
2022-11-15T18:07:47.987Z,21.30
2022-11-15T18:10:15.995Z,22.00
2022-11-15T18:12:43.893Z,21.30
2022-11-15T18:15:11.860Z,24.10
2022-11-15T18:17:39.765Z,28.90
2022-11-15T18:20:08.391Z,29.80
2022-11-15T18:22:36.404Z,36.10
2022-11-15T18:25:05.274Z,38.90
2022-11-15T18:27:33.338Z,36.80
2022-11-15T18:30:01.179Z,40.20
2022-11-15T18:32:29.276Z,40.10
2022-11-15T18:34:57.165Z,40.10
2022-11-15T18:37:25.491Z,33.90
2022-11-15T18:39:54.280Z,33.20
2022-11-15T18:42:22.287Z,33.20
2022-11-15T18:44:50.288Z,32.60
2022-11-15T18:47:18.116Z,31.70
2022-11-15T18:49:46.019Z,35.80
2022-11-15T18:52:13.992Z,29.40
2022-11-15T18:54:41.975Z,29.90
2022-11-15T18:57:09.898Z,33.30
2022-11-15T18:59:38.535Z,32.80
2022-11-15T19:02:06.534Z,34.00
2022-11-15T19:04:34.515Z,33.50
2022-11-15T19:07:02.553Z,33.90
2022-11-15T19:09:32.972Z,35.20
2022-11-15T19:12:01.147Z,36.40
2022-11-15T19:14:29.552Z,32.10
2022-11-15T19:16:57.584Z,32.10
2022-11-15T19:19:28.519Z,32.00
2022-11-15T19:21:57.702Z,31.30
2022-11-15T19:24:27.357Z,29.40
2022-11-15T19:26:55.524Z,28.40
2022-11-15T19:29:23.477Z,28.40
2022-11-15T19:31:51.480Z,28.10
2022-11-15T19:34:19.589Z,26.60
2022-11-15T19:36:47.621Z,28.30
2022-11-15T19:39:18.179Z,28.70
2022-11-15T19:41:48.631Z,31.30
2022-11-15T19:44:16.667Z,29.70
2022-11-15T19:46:44.639Z,28.90
2022-11-15T19:49:12.777Z,29.90
2022-11-15T19:51:42.744Z,30.70
2022-11-15T19:54:11.691Z,29.50
2022-11-15T19:56:42.520Z,30.10
2022-11-15T19:59:12.081Z,30.90
2022-11-15T20:01:40.479Z,30.10
2022-11-15T20:04:10.317Z,33.00
2022-11-15T20:06:43.136Z,32.40
2022-11-15T20:09:16.694Z,31.70
2022-11-15T20:11:45.012Z,30.30
2022-11-15T20:14:14.453Z,31.90
2022-11-15T20:16:42.726Z,30.30
2022-11-15T20:19:12.550Z,31.00
2022-11-15T20:21:40.778Z,33.20
2022-11-15T20:24:09.536Z,31.70
2022-11-15T20:26:37.642Z,32.60
2022-11-15T20:29:06.907Z,29.10
2022-11-15T20:31:35.121Z,31.10
2022-11-15T20:34:03.101Z,31.20
2022-11-15T20:36:31.179Z,30.20
2022-11-15T20:38:59.749Z,30.00
2022-11-15T20:41:28.311Z,31.20
2022-11-15T20:43:56.477Z,29.50
2022-11-15T20:46:24.408Z,30.70
2022-11-15T20:48:52.386Z,28.70
2022-11-15T20:51:20.929Z,29.80
2022-11-15T20:53:49.346Z,27.00
2022-11-15T20:56:21.902Z,29.40
2022-11-15T20:58:50.718Z,27.20
2022-11-15T21:01:23.928Z,28.60
2022-11-15T21:03:53.617Z,25.30
2022-11-15T21:06:23.087Z,25.70
2022-11-15T21:09:11.282Z,26.00
2022-11-15T21:11:58.476Z,25.00
2022-11-15T21:14:26.530Z,23.00
2022-11-15T21:16:54.518Z,24.50
2022-11-15T21:19:28.110Z,24.00
2022-11-15T21:22:01.575Z,22.90
2022-11-15T21:24:30.232Z,22.10
2022-11-15T21:26:59.099Z,23.50
2022-11-15T21:29:28.710Z,22.90
2022-11-15T21:31:57.360Z,23.00
2022-11-15T21:34:25.394Z,23.20
2022-11-15T21:36:53.273Z,23.50
2022-11-15T21:39:21.332Z,22.40
2022-11-15T21:41:49.306Z,22.40
2022-11-15T21:44:17.379Z,23.30
2022-11-15T21:46:45.251Z,23.20
2022-11-15T21:49:13.360Z,22.90
2022-11-15T21:51:41.865Z,24.10
2022-11-15T21:54:09.925Z,24.20
2022-11-15T21:56:37.995Z,22.90
2022-11-15T21:59:06.036Z,23.90
2022-11-15T22:01:52.567Z,24.20
2022-11-15T22:04:21.635Z,23.60
2022-11-15T22:06:50.988Z,24.70
2022-11-15T22:09:18.959Z,25.30
2022-11-15T22:11:46.840Z,23.70
2022-11-15T22:14:14.933Z,26.90
2022-11-15T22:16:42.746Z,24.50
2022-11-15T22:19:10.674Z,21.90
2022-11-15T22:21:40.034Z,23.10
2022-11-15T22:24:08.309Z,27.10
2022-11-15T22:26:36.366Z,29.30
2022-11-15T22:29:04.643Z,31.00
2022-11-15T22:31:32.649Z,35.70
2022-11-15T22:34:00.803Z,36.40
2022-11-15T22:36:42.447Z,31.80
2022-11-15T22:39:15.495Z,33.90
2022-11-15T22:41:43.633Z,32.90
2022-11-15T22:44:11.729Z,28.40
2022-11-15T22:46:39.670Z,37.60
2022-11-15T22:49:09.276Z,34.00
2022-11-15T22:51:39.142Z,34.90
2022-11-15T22:54:07.849Z,41.60
2022-11-15T22:56:35.881Z,37.20
2022-11-15T22:59:03.850Z,35.90
2022-11-15T23:01:31.878Z,33.40
2022-11-15T23:03:59.915Z,32.50
2022-11-15T23:06:28.072Z,28.10
2022-11-15T23:08:56.173Z,30.50
2022-11-15T23:11:42.821Z,28.60
2022-11-15T23:14:10.902Z,30.30
2022-11-15T23:16:39.873Z,32.20
2022-11-15T23:19:10.481Z,29.60
2022-11-15T23:22:05.066Z,29.90
2022-11-15T23:24:33.916Z,25.50
2022-11-15T23:27:06.470Z,26.60
2022-11-15T23:29:56.150Z,26.50
2022-11-15T23:32:42.880Z,23.40
2022-11-15T23:35:10.963Z,27.50
2022-11-15T23:37:38.972Z,25.80
2022-11-15T23:40:08.224Z,27.30
2022-11-15T23:42:36.743Z,24.50
2022-11-15T23:45:05.242Z,25.60
2022-11-15T23:47:33.240Z,23.20
2022-11-15T23:50:01.225Z,23.20
2022-11-15T23:52:29.241Z,23.00
2022-11-15T23:54:57.282Z,22.00
2022-11-15T23:57:25.348Z,21.30
2022-11-15T23:59:53.722Z,21.40
